sensor_id;sensor_type;location;lat;lon;timestamp;temperature;humidity
26107;DHT22;13866;50.748;12.630;2023-04-08T00:01:53;3.70;99.90
26107;DHT22;13866;50.748;12.630;2023-04-08T00:04:18;3.70;99.90
26107;DHT22;13866;50.748;12.630;2023-04-08T00:06:44;3.70;99.90
26107;DHT22;13866;50.748;12.630;2023-04-08T00:09:10;3.60;99.90
26107;DHT22;13866;50.748;12.630;2023-04-08T00:11:35;3.60;99.90
26107;DHT22;13866;50.748;12.630;2023-04-08T00:14:02;3.60;99.90
26107;DHT22;13866;50.748;12.630;2023-04-08T00:16:28;3.60;99.90
26107;DHT22;13866;50.748;12.630;2023-04-08T00:18:53;3.60;99.90
26107;DHT22;13866;50.748;12.630;2023-04-08T00:21:19;3.60;99.90
26107;DHT22;13866;50.748;12.630;2023-04-08T00:23:46;3.50;99.90
26107;DHT22;13866;50.748;12.630;2023-04-08T00:26:11;3.60;99.90
26107;DHT22;13866;50.748;12.630;2023-04-08T00:28:37;3.50;99.90
26107;DHT22;13866;50.748;12.630;2023-04-08T00:31:02;3.60;99.90
26107;DHT22;13866;50.748;12.630;2023-04-08T00:33:28;3.50;99.90
26107;DHT22;13866;50.748;12.630;2023-04-08T00:35:53;3.50;99.90
26107;DHT22;13866;50.748;12.630;2023-04-08T00:38:19;3.50;99.90
26107;DHT22;13866;50.748;12.630;2023-04-08T00:40:44;3.60;99.90
26107;DHT22;13866;50.748;12.630;2023-04-08T00:43:10;3.50;99.90
26107;DHT22;13866;50.748;12.630;2023-04-08T00:45:36;3.50;99.90
26107;DHT22;13866;50.748;12.630;2023-04-08T00:48:03;3.50;99.90
26107;DHT22;13866;50.748;12.630;2023-04-08T00:50:28;3.60;99.90
26107;DHT22;13866;50.748;12.630;2023-04-08T00:52:54;3.50;99.90
26107;DHT22;13866;50.748;12.630;2023-04-08T00:55:19;3.50;99.90
26107;DHT22;13866;50.748;12.630;2023-04-08T00:57:45;3.50;99.90
26107;DHT22;13866;50.748;12.630;2023-04-08T01:00:12;3.50;99.90
26107;DHT22;13866;50.748;12.630;2023-04-08T01:03:26;3.50;99.90
26107;DHT22;13866;50.748;12.630;2023-04-08T01:05:51;3.50;99.90
26107;DHT22;13866;50.748;12.630;2023-04-08T01:08:19;3.50;99.90
26107;DHT22;13866;50.748;12.630;2023-04-08T01:10:50;3.50;99.90
26107;DHT22;13866;50.748;12.630;2023-04-08T01:13:18;3.50;99.90
26107;DHT22;13866;50.748;12.630;2023-04-08T01:15:45;3.50;99.90
26107;DHT22;13866;50.748;12.630;2023-04-08T01:18:13;3.50;99.90
26107;DHT22;13866;50.748;12.630;2023-04-08T01:20:41;3.50;99.90
26107;DHT22;13866;50.748;12.630;2023-04-08T01:25:58;3.40;99.90
26107;DHT22;13866;50.748;12.630;2023-04-08T01:28:27;3.40;99.90
26107;DHT22;13866;50.748;12.630;2023-04-08T01:30:56;3.40;99.90
26107;DHT22;13866;50.748;12.630;2023-04-08T01:33:23;3.40;99.90
26107;DHT22;13866;50.748;12.630;2023-04-08T01:35:50;3.40;99.90
26107;DHT22;13866;50.748;12.630;2023-04-08T01:38:19;3.40;99.90
26107;DHT22;13866;50.748;12.630;2023-04-08T01:40:46;3.40;99.90
26107;DHT22;13866;50.748;12.630;2023-04-08T01:43:13;3.40;99.90
26107;DHT22;13866;50.748;12.630;2023-04-08T01:45:42;3.40;99.90
26107;DHT22;13866;50.748;12.630;2023-04-08T01:48:08;3.40;99.90
26107;DHT22;13866;50.748;12.630;2023-04-08T01:50:34;3.40;99.90
26107;DHT22;13866;50.748;12.630;2023-04-08T01:53:01;3.40;99.90
26107;DHT22;13866;50.748;12.630;2023-04-08T01:55:29;3.40;99.90
26107;DHT22;13866;50.748;12.630;2023-04-08T01:57:59;3.40;99.90
26107;DHT22;13866;50.748;12.630;2023-04-08T02:00:27;3.40;99.90
26107;DHT22;13866;50.748;12.630;2023-04-08T02:02:54;3.50;99.90
26107;DHT22;13866;50.748;12.630;2023-04-08T02:05:20;3.50;99.90
26107;DHT22;13866;50.748;12.630;2023-04-08T02:07:46;3.50;99.90
26107;DHT22;13866;50.748;12.630;2023-04-08T02:10:12;3.50;99.90
26107;DHT22;13866;50.748;12.630;2023-04-08T02:12:38;3.40;99.90
26107;DHT22;13866;50.748;12.630;2023-04-08T02:15:04;3.50;99.90
26107;DHT22;13866;50.748;12.630;2023-04-08T02:17:38;3.50;99.90
26107;DHT22;13866;50.748;12.630;2023-04-08T02:20:09;3.50;99.90
26107;DHT22;13866;50.748;12.630;2023-04-08T02:22:56;3.50;99.90
26107;DHT22;13866;50.748;12.630;2023-04-08T02:25:24;3.50;99.90
26107;DHT22;13866;50.748;12.630;2023-04-08T02:27:51;3.50;99.90
26107;DHT22;13866;50.748;12.630;2023-04-08T02:30:17;3.50;99.90
26107;DHT22;13866;50.748;12.630;2023-04-08T02:32:44;3.50;99.90
26107;DHT22;13866;50.748;12.630;2023-04-08T02:35:11;3.50;99.90
26107;DHT22;13866;50.748;12.630;2023-04-08T02:37:37;3.50;99.90
26107;DHT22;13866;50.748;12.630;2023-04-08T02:40:03;3.60;99.90
26107;DHT22;13866;50.748;12.630;2023-04-08T02:42:29;3.50;99.90
26107;DHT22;13866;50.748;12.630;2023-04-08T02:44:56;3.60;99.90
26107;DHT22;13866;50.748;12.630;2023-04-08T02:47:21;3.60;99.90
26107;DHT22;13866;50.748;12.630;2023-04-08T02:49:47;3.60;99.90
26107;DHT22;13866;50.748;12.630;2023-04-08T02:52:12;3.60;99.90
26107;DHT22;13866;50.748;12.630;2023-04-08T02:54:38;3.60;99.90
26107;DHT22;13866;50.748;12.630;2023-04-08T02:57:03;3.50;99.90
26107;DHT22;13866;50.748;12.630;2023-04-08T02:59:29;3.50;99.90
26107;DHT22;13866;50.748;12.630;2023-04-08T03:01:54;3.50;99.90
26107;DHT22;13866;50.748;12.630;2023-04-08T03:04:20;3.60;99.90
26107;DHT22;13866;50.748;12.630;2023-04-08T03:06:45;3.60;99.90
26107;DHT22;13866;50.748;12.630;2023-04-08T03:09:11;3.60;99.90
26107;DHT22;13866;50.748;12.630;2023-04-08T03:11:36;3.60;99.90
26107;DHT22;13866;50.748;12.630;2023-04-08T03:14:02;3.50;99.90
26107;DHT22;13866;50.748;12.630;2023-04-08T03:16:27;3.50;99.90
26107;DHT22;13866;50.748;12.630;2023-04-08T03:18:53;3.50;99.90
26107;DHT22;13866;50.748;12.630;2023-04-08T03:21:18;3.50;99.90
26107;DHT22;13866;50.748;12.630;2023-04-08T03:23:44;3.50;99.90
26107;DHT22;13866;50.748;12.630;2023-04-08T03:26:09;3.50;99.90
26107;DHT22;13866;50.748;12.630;2023-04-08T03:28:35;3.50;99.90
26107;DHT22;13866;50.748;12.630;2023-04-08T03:31:02;3.50;99.90
26107;DHT22;13866;50.748;12.630;2023-04-08T03:33:28;3.50;99.90
26107;DHT22;13866;50.748;12.630;2023-04-08T03:35:53;3.50;99.90
26107;DHT22;13866;50.748;12.630;2023-04-08T03:38:19;3.50;99.90
26107;DHT22;13866;50.748;12.630;2023-04-08T03:40:45;3.50;99.90
26107;DHT22;13866;50.748;12.630;2023-04-08T03:43:10;3.50;99.90
26107;DHT22;13866;50.748;12.630;2023-04-08T03:45:36;3.50;99.90
26107;DHT22;13866;50.748;12.630;2023-04-08T03:48:02;3.50;99.90
26107;DHT22;13866;50.748;12.630;2023-04-08T03:50:27;3.50;99.90
26107;DHT22;13866;50.748;12.630;2023-04-08T03:52:53;3.50;99.90
26107;DHT22;13866;50.748;12.630;2023-04-08T03:55:18;3.50;99.90
26107;DHT22;13866;50.748;12.630;2023-04-08T03:57:44;3.50;99.90
26107;DHT22;13866;50.748;12.630;2023-04-08T04:00:10;3.50;99.90
26107;DHT22;13866;50.748;12.630;2023-04-08T04:02:36;3.50;99.90
26107;DHT22;13866;50.748;12.630;2023-04-08T04:05:01;3.50;99.90
26107;DHT22;13866;50.748;12.630;2023-04-08T04:07:27;3.50;99.90
26107;DHT22;13866;50.748;12.630;2023-04-08T04:09:52;3.50;99.90
26107;DHT22;13866;50.748;12.630;2023-04-08T04:12:20;3.50;99.90
26107;DHT22;13866;50.748;12.630;2023-04-08T04:14:45;3.50;99.90
26107;DHT22;13866;50.748;12.630;2023-04-08T04:17:11;3.50;99.90
26107;DHT22;13866;50.748;12.630;2023-04-08T04:19:36;3.50;99.90
26107;DHT22;13866;50.748;12.630;2023-04-08T04:22:02;3.40;99.90
26107;DHT22;13866;50.748;12.630;2023-04-08T04:24:27;3.50;99.90
26107;DHT22;13866;50.748;12.630;2023-04-08T04:26:53;3.50;99.90
26107;DHT22;13866;50.748;12.630;2023-04-08T04:29:18;3.50;99.90
26107;DHT22;13866;50.748;12.630;2023-04-08T04:31:44;3.50;99.90
26107;DHT22;13866;50.748;12.630;2023-04-08T04:34:10;3.50;99.90
26107;DHT22;13866;50.748;12.630;2023-04-08T04:36:35;3.50;99.90
26107;DHT22;13866;50.748;12.630;2023-04-08T04:39:01;3.50;99.90
26107;DHT22;13866;50.748;12.630;2023-04-08T04:41:27;3.50;99.90
26107;DHT22;13866;50.748;12.630;2023-04-08T04:43:52;3.50;99.90
26107;DHT22;13866;50.748;12.630;2023-04-08T04:46:18;3.60;99.90
26107;DHT22;13866;50.748;12.630;2023-04-08T04:48:43;3.50;99.90
26107;DHT22;13866;50.748;12.630;2023-04-08T04:51:09;3.50;99.90
26107;DHT22;13866;50.748;12.630;2023-04-08T04:53:34;3.50;99.90
26107;DHT22;13866;50.748;12.630;2023-04-08T04:56:00;3.50;99.90
26107;DHT22;13866;50.748;12.630;2023-04-08T04:58:26;3.50;99.90
26107;DHT22;13866;50.748;12.630;2023-04-08T05:00:51;3.50;99.90
26107;DHT22;13866;50.748;12.630;2023-04-08T05:03:17;3.60;99.90
26107;DHT22;13866;50.748;12.630;2023-04-08T05:05:42;3.60;99.90
26107;DHT22;13866;50.748;12.630;2023-04-08T05:08:08;3.60;99.90
26107;DHT22;13866;50.748;12.630;2023-04-08T05:10:33;3.50;99.90
26107;DHT22;13866;50.748;12.630;2023-04-08T05:12:59;3.60;99.90
26107;DHT22;13866;50.748;12.630;2023-04-08T05:15:24;3.60;99.90
26107;DHT22;13866;50.748;12.630;2023-04-08T05:17:50;3.50;99.90
26107;DHT22;13866;50.748;12.630;2023-04-08T05:20:15;3.60;99.90
26107;DHT22;13866;50.748;12.630;2023-04-08T05:22:41;3.60;99.90
26107;DHT22;13866;50.748;12.630;2023-04-08T05:25:09;3.60;99.90
26107;DHT22;13866;50.748;12.630;2023-04-08T05:27:34;3.60;99.90
26107;DHT22;13866;50.748;12.630;2023-04-08T05:30:00;3.60;99.90
26107;DHT22;13866;50.748;12.630;2023-04-08T05:32:26;3.60;99.90
26107;DHT22;13866;50.748;12.630;2023-04-08T05:34:51;3.60;99.90
26107;DHT22;13866;50.748;12.630;2023-04-08T05:37:17;3.60;99.90
26107;DHT22;13866;50.748;12.630;2023-04-08T05:39:42;3.60;99.90
26107;DHT22;13866;50.748;12.630;2023-04-08T05:42:07;3.60;99.90
26107;DHT22;13866;50.748;12.630;2023-04-08T05:44:33;3.60;99.90
26107;DHT22;13866;50.748;12.630;2023-04-08T05:46:58;3.60;99.90
26107;DHT22;13866;50.748;12.630;2023-04-08T05:49:24;3.60;99.90
26107;DHT22;13866;50.748;12.630;2023-04-08T05:51:50;3.60;99.90
26107;DHT22;13866;50.748;12.630;2023-04-08T05:54:15;3.60;99.90
26107;DHT22;13866;50.748;12.630;2023-04-08T05:56:41;3.60;99.90
26107;DHT22;13866;50.748;12.630;2023-04-08T05:59:06;3.60;99.90
26107;DHT22;13866;50.748;12.630;2023-04-08T06:01:31;3.60;99.90
26107;DHT22;13866;50.748;12.630;2023-04-08T06:03:57;3.60;99.90
26107;DHT22;13866;50.748;12.630;2023-04-08T06:06:24;3.60;99.90
26107;DHT22;13866;50.748;12.630;2023-04-08T06:09:17;3.60;99.90
26107;DHT22;13866;50.748;12.630;2023-04-08T06:11:42;3.60;99.90
26107;DHT22;13866;50.748;12.630;2023-04-08T06:14:08;3.60;99.90
26107;DHT22;13866;50.748;12.630;2023-04-08T06:16:33;3.60;99.90
26107;DHT22;13866;50.748;12.630;2023-04-08T06:18:58;3.70;99.90
26107;DHT22;13866;50.748;12.630;2023-04-08T06:21:24;3.70;99.90
26107;DHT22;13866;50.748;12.630;2023-04-08T06:23:50;3.70;99.90
26107;DHT22;13866;50.748;12.630;2023-04-08T06:26:16;3.70;99.90
26107;DHT22;13866;50.748;12.630;2023-04-08T06:28:42;3.70;99.90
26107;DHT22;13866;50.748;12.630;2023-04-08T06:31:07;3.70;99.90
26107;DHT22;13866;50.748;12.630;2023-04-08T06:33:33;3.70;99.90
26107;DHT22;13866;50.748;12.630;2023-04-08T06:36:05;3.70;99.90
26107;DHT22;13866;50.748;12.630;2023-04-08T06:38:31;3.70;99.90
26107;DHT22;13866;50.748;12.630;2023-04-08T06:41:07;3.70;99.90
26107;DHT22;13866;50.748;12.630;2023-04-08T06:43:33;3.70;99.90
26107;DHT22;13866;50.748;12.630;2023-04-08T06:45:59;3.70;99.90
26107;DHT22;13866;50.748;12.630;2023-04-08T06:48:25;3.70;99.90
26107;DHT22;13866;50.748;12.630;2023-04-08T06:50:59;3.70;99.90
26107;DHT22;13866;50.748;12.630;2023-04-08T06:53:26;3.70;99.90
26107;DHT22;13866;50.748;12.630;2023-04-08T06:55:53;3.70;99.90
26107;DHT22;13866;50.748;12.630;2023-04-08T06:58:19;3.70;99.90
26107;DHT22;13866;50.748;12.630;2023-04-08T07:00:44;3.70;99.90
26107;DHT22;13866;50.748;12.630;2023-04-08T07:03:10;3.70;99.90
26107;DHT22;13866;50.748;12.630;2023-04-08T07:05:36;3.70;99.90
26107;DHT22;13866;50.748;12.630;2023-04-08T07:08:01;3.70;99.90
26107;DHT22;13866;50.748;12.630;2023-04-08T07:10:27;3.70;99.90
26107;DHT22;13866;50.748;12.630;2023-04-08T07:12:53;3.70;99.90
26107;DHT22;13866;50.748;12.630;2023-04-08T07:15:19;3.80;99.90
26107;DHT22;13866;50.748;12.630;2023-04-08T07:17:44;3.80;99.90
26107;DHT22;13866;50.748;12.630;2023-04-08T07:20:11;3.80;99.90
26107;DHT22;13866;50.748;12.630;2023-04-08T07:22:36;3.90;99.90
26107;DHT22;13866;50.748;12.630;2023-04-08T07:25:02;3.90;99.90
26107;DHT22;13866;50.748;12.630;2023-04-08T07:27:27;4.00;99.90
26107;DHT22;13866;50.748;12.630;2023-04-08T07:29:53;4.00;99.90
26107;DHT22;13866;50.748;12.630;2023-04-08T07:32:19;3.90;99.90
26107;DHT22;13866;50.748;12.630;2023-04-08T07:34:45;3.90;99.90
26107;DHT22;13866;50.748;12.630;2023-04-08T07:37:10;4.00;99.90
26107;DHT22;13866;50.748;12.630;2023-04-08T07:39:36;4.00;99.90
26107;DHT22;13866;50.748;12.630;2023-04-08T07:42:01;4.00;99.90
26107;DHT22;13866;50.748;12.630;2023-04-08T07:44:26;4.10;99.90
26107;DHT22;13866;50.748;12.630;2023-04-08T07:46:52;4.10;99.90
26107;DHT22;13866;50.748;12.630;2023-04-08T07:49:17;4.10;99.90
26107;DHT22;13866;50.748;12.630;2023-04-08T07:51:43;4.10;99.90
26107;DHT22;13866;50.748;12.630;2023-04-08T07:54:08;4.00;99.90
26107;DHT22;13866;50.748;12.630;2023-04-08T07:56:41;4.10;99.90
26107;DHT22;13866;50.748;12.630;2023-04-08T07:59:11;4.10;99.90
26107;DHT22;13866;50.748;12.630;2023-04-08T08:01:37;4.10;99.90
26107;DHT22;13866;50.748;12.630;2023-04-08T08:04:02;4.10;99.90
26107;DHT22;13866;50.748;12.630;2023-04-08T08:06:28;4.20;99.90
26107;DHT22;13866;50.748;12.630;2023-04-08T08:08:54;4.20;99.90
26107;DHT22;13866;50.748;12.630;2023-04-08T08:11:20;4.20;99.90
26107;DHT22;13866;50.748;12.630;2023-04-08T08:13:48;4.20;99.90
26107;DHT22;13866;50.748;12.630;2023-04-08T08:16:14;4.20;99.90
26107;DHT22;13866;50.748;12.630;2023-04-08T08:18:40;4.20;99.90
26107;DHT22;13866;50.748;12.630;2023-04-08T08:21:06;4.10;99.90
26107;DHT22;13866;50.748;12.630;2023-04-08T08:23:32;4.10;99.90
26107;DHT22;13866;50.748;12.630;2023-04-08T08:26:01;4.10;99.90
26107;DHT22;13866;50.748;12.630;2023-04-08T08:28:27;4.20;99.90
26107;DHT22;13866;50.748;12.630;2023-04-08T08:30:52;4.20;99.90
26107;DHT22;13866;50.748;12.630;2023-04-08T08:33:18;4.20;99.90
26107;DHT22;13866;50.748;12.630;2023-04-08T08:35:43;4.20;99.90
26107;DHT22;13866;50.748;12.630;2023-04-08T08:38:09;4.30;99.90
26107;DHT22;13866;50.748;12.630;2023-04-08T08:40:34;4.30;99.90
26107;DHT22;13866;50.748;12.630;2023-04-08T08:43:00;4.40;99.90
26107;DHT22;13866;50.748;12.630;2023-04-08T08:45:26;4.40;99.90
26107;DHT22;13866;50.748;12.630;2023-04-08T08:47:51;4.50;99.90
26107;DHT22;13866;50.748;12.630;2023-04-08T08:50:17;4.60;99.90
26107;DHT22;13866;50.748;12.630;2023-04-08T08:52:50;4.60;99.90
26107;DHT22;13866;50.748;12.630;2023-04-08T08:55:20;4.60;99.90
26107;DHT22;13866;50.748;12.630;2023-04-08T08:57:45;4.60;99.90
26107;DHT22;13866;50.748;12.630;2023-04-08T09:00:13;4.70;99.90
26107;DHT22;13866;50.748;12.630;2023-04-08T09:02:40;4.70;99.90
26107;DHT22;13866;50.748;12.630;2023-04-08T09:05:06;4.70;99.90
26107;DHT22;13866;50.748;12.630;2023-04-08T09:07:35;4.70;99.90
26107;DHT22;13866;50.748;12.630;2023-04-08T09:10:00;4.80;99.90
26107;DHT22;13866;50.748;12.630;2023-04-08T09:12:26;4.90;99.90
26107;DHT22;13866;50.748;12.630;2023-04-08T09:15:06;4.90;99.90
26107;DHT22;13866;50.748;12.630;2023-04-08T09:17:37;4.80;99.90
26107;DHT22;13866;50.748;12.630;2023-04-08T09:22:33;4.70;99.90
26107;DHT22;13866;50.748;12.630;2023-04-08T09:24:59;4.80;99.90
26107;DHT22;13866;50.748;12.630;2023-04-08T09:27:34;4.80;99.90
26107;DHT22;13866;50.748;12.630;2023-04-08T09:30:15;4.90;99.90
26107;DHT22;13866;50.748;12.630;2023-04-08T09:32:51;5.00;99.90
26107;DHT22;13866;50.748;12.630;2023-04-08T09:35:18;5.10;99.90
26107;DHT22;13866;50.748;12.630;2023-04-08T09:37:44;5.20;99.90
26107;DHT22;13866;50.748;12.630;2023-04-08T09:40:10;5.20;99.90
26107;DHT22;13866;50.748;12.630;2023-04-08T09:42:40;5.30;99.90
26107;DHT22;13866;50.748;12.630;2023-04-08T09:45:06;5.30;99.90
26107;DHT22;13866;50.748;12.630;2023-04-08T09:47:38;5.40;99.90
26107;DHT22;13866;50.748;12.630;2023-04-08T09:50:07;5.50;99.90
26107;DHT22;13866;50.748;12.630;2023-04-08T09:55:07;5.40;99.90
26107;DHT22;13866;50.748;12.630;2023-04-08T10:00:11;5.70;99.90
26107;DHT22;13866;50.748;12.630;2023-04-08T10:05:37;6.20;99.90
26107;DHT22;13866;50.748;12.630;2023-04-08T10:08:05;6.40;99.90
26107;DHT22;13866;50.748;12.630;2023-04-08T10:10:33;6.50;99.90
26107;DHT22;13866;50.748;12.630;2023-04-08T10:12:58;6.30;99.90
26107;DHT22;13866;50.748;12.630;2023-04-08T10:15:29;6.30;99.90
26107;DHT22;13866;50.748;12.630;2023-04-08T10:20:47;6.30;99.90
26107;DHT22;13866;50.748;12.630;2023-04-08T10:23:15;6.20;99.90
26107;DHT22;13866;50.748;12.630;2023-04-08T10:25:41;6.10;99.90
26107;DHT22;13866;50.748;12.630;2023-04-08T10:33:16;6.30;99.90
26107;DHT22;13866;50.748;12.630;2023-04-08T10:36:09;6.30;99.90
26107;DHT22;13866;50.748;12.630;2023-04-08T10:38:36;6.30;99.90
26107;DHT22;13866;50.748;12.630;2023-04-08T10:41:02;6.20;99.90
26107;DHT22;13866;50.748;12.630;2023-04-08T10:43:32;6.10;99.90
26107;DHT22;13866;50.748;12.630;2023-04-08T10:45:58;6.20;99.90
26107;DHT22;13866;50.748;12.630;2023-04-08T10:48:24;6.20;99.90
26107;DHT22;13866;50.748;12.630;2023-04-08T10:51:02;6.20;99.90
26107;DHT22;13866;50.748;12.630;2023-04-08T10:53:29;6.20;99.90
26107;DHT22;13866;50.748;12.630;2023-04-08T10:56:06;6.30;99.90
26107;DHT22;13866;50.748;12.630;2023-04-08T10:58:33;6.40;99.90
26107;DHT22;13866;50.748;12.630;2023-04-08T11:01:05;6.40;99.90
26107;DHT22;13866;50.748;12.630;2023-04-08T11:03:35;6.30;99.90
26107;DHT22;13866;50.748;12.630;2023-04-08T11:06:01;6.20;99.90
26107;DHT22;13866;50.748;12.630;2023-04-08T11:08:28;6.10;99.90
26107;DHT22;13866;50.748;12.630;2023-04-08T11:10:54;6.10;99.90
26107;DHT22;13866;50.748;12.630;2023-04-08T11:13:19;6.00;99.90
26107;DHT22;13866;50.748;12.630;2023-04-08T11:15:46;6.00;99.90
26107;DHT22;13866;50.748;12.630;2023-04-08T11:20:23;6.00;99.90
26107;DHT22;13866;50.748;12.630;2023-04-08T11:22:49;6.00;99.90
26107;DHT22;13866;50.748;12.630;2023-04-08T11:25:16;6.10;99.90
26107;DHT22;13866;50.748;12.630;2023-04-08T11:27:41;6.30;99.90
26107;DHT22;13866;50.748;12.630;2023-04-08T11:30:08;6.30;99.90
26107;DHT22;13866;50.748;12.630;2023-04-08T11:32:35;6.50;99.90
26107;DHT22;13866;50.748;12.630;2023-04-08T11:35:03;6.70;99.90
26107;DHT22;13866;50.748;12.630;2023-04-08T11:37:55;6.90;99.90
26107;DHT22;13866;50.748;12.630;2023-04-08T11:40:21;6.80;99.90
26107;DHT22;13866;50.748;12.630;2023-04-08T11:42:48;7.00;99.90
26107;DHT22;13866;50.748;12.630;2023-04-08T11:45:16;7.10;99.90
26107;DHT22;13866;50.748;12.630;2023-04-08T11:47:43;7.20;99.90
26107;DHT22;13866;50.748;12.630;2023-04-08T11:50:09;7.20;99.90
26107;DHT22;13866;50.748;12.630;2023-04-08T11:52:48;7.00;99.90
26107;DHT22;13866;50.748;12.630;2023-04-08T11:55:30;7.20;99.90
26107;DHT22;13866;50.748;12.630;2023-04-08T11:58:00;7.40;99.90
26107;DHT22;13866;50.748;12.630;2023-04-08T12:00:26;7.40;99.90
26107;DHT22;13866;50.748;12.630;2023-04-08T12:02:52;7.50;99.90
26107;DHT22;13866;50.748;12.630;2023-04-08T12:05:18;7.50;99.90
26107;DHT22;13866;50.748;12.630;2023-04-08T12:07:44;7.50;99.90
26107;DHT22;13866;50.748;12.630;2023-04-08T12:10:10;7.50;99.90
26107;DHT22;13866;50.748;12.630;2023-04-08T12:12:36;7.20;99.90
26107;DHT22;13866;50.748;12.630;2023-04-08T12:15:02;7.10;99.90
26107;DHT22;13866;50.748;12.630;2023-04-08T12:17:28;7.10;99.90
26107;DHT22;13866;50.748;12.630;2023-04-08T12:19:53;7.10;99.90
26107;DHT22;13866;50.748;12.630;2023-04-08T12:22:19;7.10;99.90
26107;DHT22;13866;50.748;12.630;2023-04-08T12:24:45;7.10;99.90
26107;DHT22;13866;50.748;12.630;2023-04-08T12:27:10;7.10;99.90
26107;DHT22;13866;50.748;12.630;2023-04-08T12:29:36;7.10;99.90
26107;DHT22;13866;50.748;12.630;2023-04-08T12:32:01;7.10;99.90
26107;DHT22;13866;50.748;12.630;2023-04-08T12:34:28;7.00;99.90
26107;DHT22;13866;50.748;12.630;2023-04-08T12:36:54;7.10;99.90
26107;DHT22;13866;50.748;12.630;2023-04-08T12:39:20;7.10;99.90
26107;DHT22;13866;50.748;12.630;2023-04-08T12:41:46;7.20;99.90
26107;DHT22;13866;50.748;12.630;2023-04-08T12:44:12;7.00;99.90
26107;DHT22;13866;50.748;12.630;2023-04-08T12:46:37;7.10;99.90
26107;DHT22;13866;50.748;12.630;2023-04-08T12:49:03;7.10;99.90
26107;DHT22;13866;50.748;12.630;2023-04-08T12:51:28;7.10;99.90
26107;DHT22;13866;50.748;12.630;2023-04-08T12:53:54;6.90;99.90
26107;DHT22;13866;50.748;12.630;2023-04-08T12:56:19;7.00;99.90
26107;DHT22;13866;50.748;12.630;2023-04-08T12:58:45;7.10;99.90
26107;DHT22;13866;50.748;12.630;2023-04-08T13:01:11;7.10;99.90
26107;DHT22;13866;50.748;12.630;2023-04-08T13:03:36;7.10;99.90
26107;DHT22;13866;50.748;12.630;2023-04-08T13:06:02;7.20;99.90
26107;DHT22;13866;50.748;12.630;2023-04-08T13:08:27;7.10;99.90
26107;DHT22;13866;50.748;12.630;2023-04-08T13:10:53;7.20;99.90
26107;DHT22;13866;50.748;12.630;2023-04-08T13:13:19;7.20;99.90
26107;DHT22;13866;50.748;12.630;2023-04-08T13:15:45;7.30;99.90
26107;DHT22;13866;50.748;12.630;2023-04-08T13:18:10;7.30;99.90
26107;DHT22;13866;50.748;12.630;2023-04-08T13:20:36;7.30;99.90
26107;DHT22;13866;50.748;12.630;2023-04-08T13:23:01;7.40;99.90
26107;DHT22;13866;50.748;12.630;2023-04-08T13:25:27;7.60;99.90
26107;DHT22;13866;50.748;12.630;2023-04-08T13:27:52;7.70;99.90
26107;DHT22;13866;50.748;12.630;2023-04-08T13:30:18;7.70;99.90
26107;DHT22;13866;50.748;12.630;2023-04-08T13:32:43;7.60;99.90
26107;DHT22;13866;50.748;12.630;2023-04-08T13:35:09;7.60;99.90
26107;DHT22;13866;50.748;12.630;2023-04-08T13:37:35;7.70;99.90
26107;DHT22;13866;50.748;12.630;2023-04-08T13:40:01;7.70;99.90
26107;DHT22;13866;50.748;12.630;2023-04-08T13:42:26;7.70;99.90
26107;DHT22;13866;50.748;12.630;2023-04-08T13:44:52;7.70;99.90
26107;DHT22;13866;50.748;12.630;2023-04-08T13:47:17;7.80;99.90
26107;DHT22;13866;50.748;12.630;2023-04-08T13:49:43;7.80;99.90
26107;DHT22;13866;50.748;12.630;2023-04-08T13:52:08;7.80;99.90
26107;DHT22;13866;50.748;12.630;2023-04-08T13:54:34;7.90;99.90
26107;DHT22;13866;50.748;12.630;2023-04-08T13:56:59;7.90;99.90
26107;DHT22;13866;50.748;12.630;2023-04-08T13:59:25;7.90;99.90
26107;DHT22;13866;50.748;12.630;2023-04-08T14:01:51;7.80;99.90
26107;DHT22;13866;50.748;12.630;2023-04-08T14:04:19;7.80;99.90
26107;DHT22;13866;50.748;12.630;2023-04-08T14:06:45;7.60;99.90
26107;DHT22;13866;50.748;12.630;2023-04-08T14:09:10;7.50;99.90
26107;DHT22;13866;50.748;12.630;2023-04-08T14:11:36;7.40;99.90
26107;DHT22;13866;50.748;12.630;2023-04-08T14:14:02;7.40;99.90
26107;DHT22;13866;50.748;12.630;2023-04-08T14:16:27;7.40;99.90
26107;DHT22;13866;50.748;12.630;2023-04-08T14:18:55;7.30;99.90
26107;DHT22;13866;50.748;12.630;2023-04-08T14:21:21;7.40;99.90
26107;DHT22;13866;50.748;12.630;2023-04-08T14:23:46;7.50;99.90
26107;DHT22;13866;50.748;12.630;2023-04-08T14:26:12;7.40;99.90
26107;DHT22;13866;50.748;12.630;2023-04-08T14:28:38;7.40;99.90
26107;DHT22;13866;50.748;12.630;2023-04-08T14:31:03;7.40;99.90
26107;DHT22;13866;50.748;12.630;2023-04-08T14:33:29;7.40;99.90
26107;DHT22;13866;50.748;12.630;2023-04-08T14:35:55;7.40;99.90
26107;DHT22;13866;50.748;12.630;2023-04-08T14:38:21;7.30;99.90
26107;DHT22;13866;50.748;12.630;2023-04-08T14:40:47;7.40;99.90
26107;DHT22;13866;50.748;12.630;2023-04-08T14:43:12;7.20;99.90
26107;DHT22;13866;50.748;12.630;2023-04-08T14:45:38;7.20;99.90
26107;DHT22;13866;50.748;12.630;2023-04-08T14:48:03;7.20;99.90
26107;DHT22;13866;50.748;12.630;2023-04-08T14:50:29;7.30;99.90
26107;DHT22;13866;50.748;12.630;2023-04-08T14:52:55;7.30;99.90
26107;DHT22;13866;50.748;12.630;2023-04-08T14:55:21;7.30;99.90
26107;DHT22;13866;50.748;12.630;2023-04-08T14:57:47;7.30;99.90
26107;DHT22;13866;50.748;12.630;2023-04-08T15:00:12;7.30;99.90
26107;DHT22;13866;50.748;12.630;2023-04-08T15:02:38;7.30;99.90
26107;DHT22;13866;50.748;12.630;2023-04-08T15:05:04;7.30;99.90
26107;DHT22;13866;50.748;12.630;2023-04-08T15:07:29;7.20;99.90
26107;DHT22;13866;50.748;12.630;2023-04-08T15:09:55;7.20;99.90
26107;DHT22;13866;50.748;12.630;2023-04-08T15:12:21;7.20;99.90
26107;DHT22;13866;50.748;12.630;2023-04-08T15:14:47;7.20;99.90
26107;DHT22;13866;50.748;12.630;2023-04-08T15:17:12;7.10;99.90
26107;DHT22;13866;50.748;12.630;2023-04-08T15:19:38;7.10;99.90
26107;DHT22;13866;50.748;12.630;2023-04-08T15:22:03;7.00;99.90
26107;DHT22;13866;50.748;12.630;2023-04-08T15:24:29;7.00;99.90
26107;DHT22;13866;50.748;12.630;2023-04-08T15:26:54;6.90;99.90
26107;DHT22;13866;50.748;12.630;2023-04-08T15:29:21;6.90;99.90
26107;DHT22;13866;50.748;12.630;2023-04-08T15:31:47;6.90;99.90
26107;DHT22;13866;50.748;12.630;2023-04-08T15:34:13;6.80;99.90
26107;DHT22;13866;50.748;12.630;2023-04-08T15:36:38;6.80;99.90
26107;DHT22;13866;50.748;12.630;2023-04-08T15:39:04;6.80;99.90
26107;DHT22;13866;50.748;12.630;2023-04-08T15:41:30;6.80;99.90
26107;DHT22;13866;50.748;12.630;2023-04-08T15:43:56;6.80;99.90
26107;DHT22;13866;50.748;12.630;2023-04-08T15:46:22;6.80;99.90
26107;DHT22;13866;50.748;12.630;2023-04-08T15:48:48;6.70;99.90
26107;DHT22;13866;50.748;12.630;2023-04-08T15:51:14;6.70;99.90